createdAt,value
2018-09-08T00:01:10.119Z,101870.64
2018-09-08T00:03:39.124Z,101871.98
2018-09-08T00:06:08.124Z,101872.23
2018-09-08T00:08:37.145Z,101867.57
2018-09-08T00:11:06.423Z,101871.14
2018-09-08T00:13:35.421Z,101870.86
2018-09-08T00:16:09.559Z,101865.66
2018-09-08T00:18:43.737Z,101865.66
2018-09-08T00:21:18.425Z,101861.25
2018-09-08T00:23:52.742Z,101856.56
2018-09-08T00:26:26.866Z,101857.97
2018-09-08T00:29:00.474Z,101868.91
2018-09-08T00:31:29.567Z,101875.23
2018-09-08T00:33:58.630Z,101876.34
2018-09-08T00:36:27.725Z,101874.97
2018-09-08T00:38:56.794Z,101863.70
2018-09-08T00:41:25.975Z,101879.09
2018-09-08T00:43:55.075Z,101882.62
2018-09-08T00:46:24.205Z,101872.23
2018-09-08T00:48:53.385Z,101877.43
2018-09-08T00:51:22.462Z,101875.80
2018-09-08T00:53:51.654Z,101876.95
2018-09-08T00:56:20.735Z,101863.55
2018-09-08T00:58:55.770Z,101864.98
2018-09-08T01:01:24.863Z,101869.12
2018-09-08T01:03:54.018Z,101866.12
2018-09-08T01:06:23.166Z,101862.03
2018-09-08T01:08:52.269Z,101863.17
2018-09-08T01:11:21.356Z,101865.08
2018-09-08T01:13:50.551Z,101869.76
2018-09-08T01:16:20.520Z,101870.05
2018-09-08T01:18:49.561Z,101871.70
2018-09-08T01:21:18.685Z,101861.81
2018-09-08T01:23:50.527Z,101862.06
2018-09-08T01:26:20.542Z,101865.91
2018-09-08T01:28:50.572Z,101864.00
2018-09-08T01:31:20.134Z,101855.23
2018-09-08T01:33:49.329Z,101854.67
2018-09-08T01:36:18.389Z,101857.13
2018-09-08T01:38:47.509Z,101854.13
2018-09-08T01:41:16.618Z,101845.36
2018-09-08T01:43:45.646Z,101845.61
2018-09-08T01:46:14.682Z,101843.16
2018-09-08T01:48:44.662Z,101845.36
2018-09-08T01:51:13.807Z,101842.62
2018-09-08T01:53:42.956Z,101845.61
2018-09-08T01:56:12.124Z,101840.98
2018-09-08T01:58:42.091Z,101844.81
2018-09-08T02:01:11.412Z,101843.44
2018-09-08T02:03:40.615Z,101841.53
2018-09-08T02:06:11.065Z,101837.67
2018-09-08T02:08:40.211Z,101837.97
2018-09-08T02:11:09.302Z,101841.50
2018-09-08T02:13:38.396Z,101843.70
2018-09-08T02:16:07.651Z,101843.70
2018-09-08T02:18:36.722Z,101838.79
2018-09-08T02:21:06.047Z,101840.98
2018-09-08T02:23:35.072Z,101843.73
2018-09-08T02:26:04.153Z,101846.47
2018-09-08T02:28:33.861Z,101844.27
2018-09-08T02:31:03.048Z,101842.07
2018-09-08T02:33:32.179Z,101843.16
2018-09-08T02:36:01.287Z,101847.30
2018-09-08T02:38:30.329Z,101847.01
2018-09-08T02:40:59.480Z,101846.20
2018-09-08T02:43:29.412Z,101844.28
2018-09-08T02:45:59.392Z,101844.28
2018-09-08T02:48:29.568Z,101842.94
2018-09-08T02:50:57.072Z,101847.88
2018-09-08T02:53:24.642Z,101842.94
2018-09-08T02:55:52.154Z,101836.34
2018-09-08T02:58:19.812Z,101833.60
2018-09-08T03:00:47.318Z,101838.55
2018-09-08T03:03:14.850Z,101841.00
2018-09-08T03:05:42.403Z,101846.20
2018-09-08T03:08:10.011Z,101842.34
2018-09-08T03:10:37.532Z,101834.41
2018-09-08T03:13:05.038Z,101841.29
2018-09-08T03:15:32.631Z,101843.76
2018-09-08T03:18:00.169Z,101841.04
2018-09-08T03:20:27.700Z,101834.20
2018-09-08T03:22:55.223Z,101839.69
2018-09-08T03:25:22.719Z,101832.03
2018-09-08T03:27:50.249Z,101827.08
2018-09-08T03:30:17.758Z,101822.45
2018-09-08T03:32:45.364Z,101828.75
2018-09-08T03:35:12.912Z,101829.83
2018-09-08T03:37:40.422Z,101821.91
2018-09-08T03:40:07.946Z,101822.17
2018-09-08T03:42:35.624Z,101820.26
2018-09-08T03:45:03.152Z,101817.52
2018-09-08T03:47:30.666Z,101821.62
2018-09-08T03:49:58.195Z,101816.95
2018-09-08T03:52:25.737Z,101812.03
2018-09-08T03:54:53.263Z,101809.28
2018-09-08T03:57:20.761Z,101808.47
2018-09-08T03:59:48.269Z,101806.27
2018-09-08T04:02:15.809Z,101809.30
2018-09-08T04:04:44.902Z,101811.75
2018-09-08T04:07:13.986Z,101812.84
2018-09-08T04:09:43.024Z,101818.05
2018-09-08T04:12:13.022Z,101817.75
2018-09-08T04:14:42.121Z,101810.91
2018-09-08T04:17:11.163Z,101815.84
2018-09-08T04:19:40.221Z,101816.41
2018-09-08T04:22:10.242Z,101818.31
2018-09-08T04:24:40.120Z,101815.86
2018-09-08T04:27:09.731Z,101808.17
2018-09-08T04:29:38.947Z,101804.91
2018-09-08T04:32:08.100Z,101806.84
2018-09-08T04:34:37.129Z,101809.03
2018-09-08T04:37:06.567Z,101808.48
2018-09-08T04:39:35.628Z,101807.68
2018-09-08T04:42:04.664Z,101808.21
2018-09-08T04:44:33.722Z,101807.95
2018-09-08T04:47:02.818Z,101808.78
2018-09-08T04:49:32.007Z,101803.56
2018-09-08T04:52:01.072Z,101804.65
2018-09-08T04:54:30.165Z,101801.66
2018-09-08T04:56:59.280Z,101803.30
2018-09-08T04:59:28.318Z,101804.10
2018-09-08T05:01:57.374Z,101800.28
2018-09-08T05:04:26.410Z,101800.28
2018-09-08T05:06:55.460Z,101799.73
2018-09-08T05:09:24.573Z,101801.36
2018-09-08T05:11:53.736Z,101797.26
2018-09-08T05:14:22.781Z,101799.45
2018-09-08T05:16:51.891Z,101797.26
2018-09-08T05:19:20.923Z,101804.94
2018-09-08T05:21:49.963Z,101810.41
2018-09-08T05:24:19.060Z,101806.84
2018-09-08T05:26:48.191Z,101811.79
2018-09-08T05:29:17.210Z,101800.84
2018-09-08T05:31:46.916Z,101801.09
2018-09-08T05:34:15.933Z,101801.09
2018-09-08T05:36:45.647Z,101792.63
2018-09-08T05:39:15.406Z,101803.58
2018-09-08T05:41:44.446Z,101813.67
2018-09-08T05:44:13.606Z,101811.77
2018-09-08T05:46:42.640Z,101826.83
2018-09-08T05:49:11.875Z,101811.49
2018-09-08T05:51:41.630Z,101806.28
2018-09-08T05:54:11.822Z,101810.40
2018-09-08T05:56:41.542Z,101813.14
2018-09-08T05:59:10.562Z,101798.32
2018-09-08T06:01:39.761Z,101790.13
2018-09-08T06:04:08.913Z,101793.44
2018-09-08T06:06:38.259Z,101792.32
2018-09-08T06:09:08.557Z,101788.77
2018-09-08T06:11:37.728Z,101794.77
2018-09-08T06:14:07.926Z,101786.81
2018-09-08T06:16:37.019Z,101791.47
2018-09-08T06:19:07.245Z,101787.09
2018-09-08T06:21:36.256Z,101781.04
2018-09-08T06:24:09.489Z,101782.66
2018-09-08T06:26:38.749Z,101796.11
2018-09-08T06:29:07.770Z,101790.63
2018-09-08T06:31:36.784Z,101782.95
2018-09-08T06:34:05.842Z,101785.69
2018-09-08T06:36:36.352Z,101788.17
2018-09-08T06:39:07.796Z,101791.71
2018-09-08T06:41:37.017Z,101790.34
2018-09-08T06:44:06.158Z,101793.63
2018-09-08T06:46:36.124Z,101794.72
2018-09-08T06:49:05.948Z,101801.30
2018-09-08T06:51:35.718Z,101797.44
2018-09-08T06:54:04.826Z,101800.16
2018-09-08T06:56:34.820Z,101795.48
2018-09-08T06:59:03.817Z,101788.06
2018-09-08T07:01:32.809Z,101786.69
2018-09-08T07:04:01.805Z,101796.86
2018-09-08T07:06:30.997Z,101791.09
2018-09-08T07:09:00.105Z,101788.64
2018-09-08T07:11:29.108Z,101795.72
2018-09-08T07:13:58.205Z,101797.92
2018-09-08T07:16:27.312Z,101793.77
2018-09-08T07:18:56.661Z,101794.06
2018-09-08T07:21:25.708Z,101795.97
2018-09-08T07:23:56.635Z,101795.15
2018-09-08T07:26:26.171Z,101788.00
2018-09-08T07:28:55.237Z,101781.72
2018-09-08T07:31:25.095Z,101783.64
2018-09-08T07:33:54.329Z,101780.06
2018-09-08T07:36:23.419Z,101775.13
2018-09-08T07:38:52.564Z,101789.63
2018-09-08T07:41:21.642Z,101785.48
2018-09-08T07:43:50.767Z,101786.02
2018-09-08T07:46:20.006Z,101780.77
2018-09-08T07:48:50.124Z,101780.47
2018-09-08T07:51:19.193Z,101764.84
2018-09-08T07:53:48.358Z,101756.28
2018-09-08T07:56:17.480Z,101768.30
2018-09-08T07:58:47.239Z,101764.43
2018-09-08T08:01:16.445Z,101758.36
2018-09-08T08:03:46.436Z,101769.86
2018-09-08T08:06:16.419Z,101771.20
2018-09-08T08:08:45.472Z,101774.19
2018-09-08T08:11:14.508Z,101767.86
2018-09-08T08:13:44.001Z,101777.66
2018-09-08T08:16:13.693Z,101774.33
2018-09-08T08:18:42.726Z,101777.27
2018-09-08T08:21:11.846Z,101773.72
2018-09-08T08:23:41.023Z,101778.66
2018-09-08T08:26:10.335Z,101776.45
2018-09-08T08:28:39.370Z,101774.23
2018-09-08T08:31:09.047Z,101775.34
2018-09-08T08:33:38.164Z,101776.16
2018-09-08T08:36:07.199Z,101771.22
2018-09-08T08:38:36.264Z,101770.38
2018-09-08T08:41:05.558Z,101768.17
2018-09-08T08:43:34.665Z,101767.03
2018-09-08T08:46:04.012Z,101766.19
2018-09-08T08:48:33.177Z,101773.83
2018-09-08T08:51:13.258Z,101773.73
2018-09-08T08:53:53.218Z,101767.37
2018-09-08T08:56:22.361Z,101773.34
2018-09-08T08:58:51.453Z,101779.86
2018-09-08T09:01:20.916Z,101778.77
2018-09-08T09:03:50.429Z,101783.95
2018-09-08T09:06:21.746Z,101782.30
2018-09-08T09:08:50.760Z,101790.59
2018-09-08T09:11:20.185Z,101782.42
2018-09-08T09:13:49.895Z,101787.91
2018-09-08T09:16:20.491Z,101786.01
2018-09-08T09:19:00.731Z,101784.09
2018-09-08T09:22:42.775Z,101785.17
2018-09-08T09:25:13.068Z,101788.16
2018-09-08T09:27:46.373Z,101776.63
2018-09-08T09:30:16.347Z,101783.73
2018-09-08T09:32:45.839Z,101778.72
2018-09-08T09:35:16.348Z,101780.85
2018-09-08T09:37:45.460Z,101780.77
2018-09-08T09:40:16.875Z,101781.23
2018-09-08T09:42:46.824Z,101781.11
2018-09-08T09:45:16.106Z,101775.50
2018-09-08T09:47:45.230Z,101772.09
2018-09-08T09:50:16.559Z,101753.31
2018-09-08T09:52:45.886Z,101748.55
2018-09-08T09:55:15.255Z,101757.84
2018-09-08T09:57:45.955Z,101771.53
2018-09-08T10:00:21.509Z,101775.05
2018-09-08T10:03:21.191Z,101778.58
2018-09-08T10:05:51.950Z,101776.11
2018-09-08T10:08:34.601Z,101774.42
2018-09-08T10:11:03.794Z,101765.63
2018-09-08T10:13:34.214Z,101759.81
2018-09-08T10:16:03.291Z,101774.34
2018-09-08T10:18:32.347Z,101761.09
2018-09-08T10:21:01.404Z,101774.47
2018-09-08T10:23:30.603Z,101772.73
2018-09-08T10:25:59.711Z,101771.00
2018-09-08T10:28:37.736Z,101768.52
2018-09-08T10:31:06.969Z,101775.13
2018-09-08T10:33:37.144Z,101775.98
2018-09-08T10:36:06.332Z,101780.11
2018-09-08T10:38:35.814Z,101769.67
2018-09-08T10:41:12.194Z,101777.36
2018-09-08T10:43:41.327Z,101780.69
2018-09-08T10:46:10.934Z,101773.23
2018-09-08T10:48:54.239Z,101777.36
2018-09-08T10:51:38.083Z,101781.16
2018-09-08T10:54:08.537Z,101779.97
2018-09-08T10:56:37.889Z,101779.03
2018-09-08T10:59:07.135Z,101776.47
2018-09-08T11:01:36.376Z,101779.13
2018-09-08T11:04:10.766Z,101772.49
2018-09-08T11:06:41.201Z,101772.49
2018-09-08T11:09:10.551Z,101769.44
2018-09-08T11:11:39.730Z,101775.16
2018-09-08T11:14:09.248Z,101772.92
2018-09-08T11:16:42.479Z,101777.05
2018-09-08T11:19:12.747Z,101777.82
2018-09-08T11:21:42.069Z,101786.09
2018-09-08T11:24:11.793Z,101783.39
2018-09-08T11:26:40.954Z,101785.90
2018-09-08T11:29:10.062Z,101776.29
2018-09-08T11:31:39.203Z,101782.93
2018-09-08T11:34:08.283Z,101769.41
2018-09-08T11:36:38.316Z,101773.75
2018-09-08T11:39:08.515Z,101776.14
2018-09-08T11:41:38.421Z,101774.70
2018-09-08T11:44:07.565Z,101779.26
2018-09-08T11:46:36.601Z,101775.55
2018-09-08T11:49:05.759Z,101777.59
2018-09-08T11:51:34.893Z,101773.67
2018-09-08T11:54:04.320Z,101786.86
2018-09-08T11:56:34.186Z,101775.53
2018-09-08T11:59:04.881Z,101770.53
2018-09-08T12:01:35.094Z,101771.30
2018-09-08T12:04:04.174Z,101770.95
2018-09-08T12:06:33.323Z,101763.72
2018-09-08T12:09:03.132Z,101773.30
2018-09-08T12:11:32.215Z,101767.78
2018-09-08T12:14:02.419Z,101770.53
2018-09-08T12:16:32.502Z,101779.36
2018-09-08T12:19:01.813Z,101768.09
2018-09-08T12:21:30.878Z,101777.70
2018-09-08T12:23:59.948Z,101782.59
2018-09-08T12:26:29.186Z,101774.84
2018-09-08T12:29:00.266Z,101776.73
2018-09-08T12:31:29.797Z,101771.98
2018-09-08T12:33:58.869Z,101782.39
2018-09-08T12:36:28.143Z,101780.97
2018-09-08T12:38:57.358Z,101772.42
2018-09-08T12:41:26.341Z,101771.94
2018-09-08T12:43:55.401Z,101774.42
2018-09-08T12:46:25.422Z,101782.70
2018-09-08T12:48:56.929Z,101779.19
2018-09-08T12:51:25.977Z,101778.98
2018-09-08T12:53:55.321Z,101777.91
2018-09-08T12:56:24.425Z,101774.64
2018-09-08T12:58:54.025Z,101778.19
2018-09-08T13:01:23.360Z,101771.88
2018-09-08T13:03:52.585Z,101776.26
2018-09-08T13:06:21.976Z,101773.77
2018-09-08T13:08:51.256Z,101774.88
2018-09-08T13:11:20.388Z,101783.11
2018-09-08T13:13:49.522Z,101775.29
2018-09-08T13:29:52.294Z,101780.34
2018-09-08T13:32:21.425Z,101770.80
2018-09-08T13:34:50.706Z,101767.60
2018-09-08T13:37:19.936Z,101774.84
2018-09-08T13:39:49.273Z,101777.64
2018-09-08T13:42:18.582Z,101772.23
2018-09-08T13:44:47.827Z,101773.19
2018-09-08T13:47:17.947Z,101772.22
2018-09-08T13:49:48.150Z,101772.25
2018-09-08T13:52:17.472Z,101769.50
2018-09-08T13:54:46.638Z,101762.85
2018-09-08T13:57:15.869Z,101771.05
2018-09-08T13:59:45.040Z,101760.75
2018-09-08T14:02:15.363Z,101762.47
2018-09-08T14:04:45.049Z,101762.33
2018-09-08T14:07:14.150Z,101764.73
2018-09-08T14:09:43.350Z,101756.98
2018-09-08T14:12:12.527Z,101770.70
2018-09-08T14:14:41.718Z,101766.56
2018-09-08T14:17:36.962Z,101770.70
2018-09-08T14:20:07.083Z,101760.30
2018-09-08T14:22:36.284Z,101760.84
2018-09-08T14:25:05.564Z,101757.84
2018-09-08T14:27:36.364Z,101759.47
2018-09-08T14:30:06.286Z,101765.81
2018-09-08T14:32:35.663Z,101763.05
2018-09-08T14:35:05.326Z,101761.91
2018-09-08T14:37:34.548Z,101757.78
2018-09-08T14:40:03.770Z,101772.35
2018-09-08T14:42:33.438Z,101768.77
2018-09-08T14:45:02.520Z,101766.21
2018-09-08T14:47:32.855Z,101774.45
2018-09-08T14:50:02.651Z,101773.00
2018-09-08T14:52:31.868Z,101778.79
2018-09-08T14:55:01.012Z,101773.27
2018-09-08T14:57:30.180Z,101781.23
2018-09-08T14:59:59.251Z,101780.17
2018-09-08T15:02:28.604Z,101776.89
2018-09-08T15:04:57.797Z,101784.03
2018-09-08T15:07:26.859Z,101774.38
2018-09-08T15:09:55.983Z,101781.27
2018-09-08T15:12:25.115Z,101781.27
2018-09-08T15:14:54.222Z,101773.86
2018-09-08T15:17:29.359Z,101774.25
2018-09-08T15:19:58.506Z,101782.00
2018-09-08T15:22:27.627Z,101776.48
2018-09-08T15:24:56.716Z,101779.48
2018-09-08T15:27:25.845Z,101778.17
2018-09-08T15:29:55.157Z,101779.32
2018-09-08T15:32:24.309Z,101777.50
2018-09-08T15:34:53.518Z,101773.12
2018-09-08T15:37:22.613Z,101775.67
2018-09-08T15:39:51.913Z,101777.13
2018-09-08T15:42:21.016Z,101772.23
2018-09-08T15:44:50.155Z,101767.33
2018-09-08T15:47:20.436Z,101763.78
2018-09-08T15:58:58.013Z,101758.20
2018-09-08T16:01:27.149Z,101778.66
2018-09-08T16:03:56.390Z,101778.45
2018-09-08T16:06:26.109Z,101791.47
2018-09-08T16:08:55.240Z,101781.30
2018-09-08T16:11:24.387Z,101773.66
2018-09-08T16:13:53.484Z,101767.62
2018-09-08T16:16:22.675Z,101766.28
2018-09-08T16:18:52.929Z,101753.12
2018-09-08T16:21:22.614Z,101747.39
2018-09-08T16:23:51.766Z,101735.09
2018-09-08T16:26:36.203Z,101748.14
2018-09-08T16:29:08.081Z,101747.06
2018-09-08T16:31:42.411Z,101738.87
2018-09-08T16:34:11.529Z,101749.91
2018-09-08T16:36:40.735Z,101762.92
2018-09-08T16:39:11.307Z,101756.67
2018-09-08T16:41:41.129Z,101752.33
2018-09-08T16:44:10.535Z,101759.48
2018-09-08T16:46:39.578Z,101758.72
2018-09-08T16:49:08.641Z,101750.27
2018-09-08T16:51:38.692Z,101745.37
2018-09-08T16:54:07.998Z,101747.66
2018-09-08T16:56:37.155Z,101748.81
2018-09-08T16:59:08.763Z,101754.59
2018-09-08T17:01:44.330Z,101745.27
2018-09-08T17:04:13.451Z,101742.05
2018-09-08T17:06:42.700Z,101742.63
2018-09-08T17:09:12.586Z,101746.53
2018-09-08T17:11:41.825Z,101731.45
2018-09-08T17:14:10.864Z,101736.98
2018-09-08T17:16:40.290Z,101731.48
2018-09-08T17:19:10.478Z,101732.38
2018-09-08T17:21:39.552Z,101742.12
2018-09-08T17:24:08.603Z,101736.17
2018-09-08T17:26:38.493Z,101734.52
2018-09-08T17:29:07.673Z,101741.45
2018-09-08T17:31:36.834Z,101741.52
2018-09-08T17:34:06.571Z,101744.31
2018-09-08T17:36:36.309Z,101750.09
2018-09-08T17:39:12.010Z,101750.34
2018-09-08T17:41:41.017Z,101743.17
2018-09-08T17:44:10.384Z,101740.72
2018-09-08T17:46:39.489Z,101747.09
2018-09-08T17:49:08.610Z,101742.44
2018-09-08T17:51:37.820Z,101739.45
2018-09-08T17:54:07.200Z,101737.26
2018-09-08T17:56:37.334Z,101738.11
2018-09-08T17:59:07.325Z,101733.75
2018-09-08T18:01:36.618Z,101727.18
2018-09-08T18:04:05.832Z,101735.13
2018-09-08T18:06:36.062Z,101729.63
2018-09-08T18:09:06.879Z,101737.05
2018-09-08T18:11:36.027Z,101735.36
2018-09-08T18:14:05.169Z,101736.48
2018-09-08T18:16:34.199Z,101730.45
2018-09-08T18:19:03.323Z,101722.80
2018-09-08T18:21:32.526Z,101720.08
2018-09-08T18:24:01.972Z,101714.59
2018-09-08T18:26:31.123Z,101706.10
2018-09-08T18:29:00.317Z,101704.20
2018-09-08T18:31:30.386Z,101696.86
2018-09-08T18:34:00.858Z,101699.62
2018-09-08T18:36:30.812Z,101705.97
2018-09-08T18:39:00.052Z,101711.74
2018-09-08T18:41:29.643Z,101724.91
2018-09-08T18:43:58.805Z,101726.56
2018-09-08T18:46:27.948Z,101730.98
2018-09-08T18:48:57.637Z,101723.84
2018-09-08T18:51:27.493Z,101721.98
2018-09-08T18:53:56.701Z,101722.83
2018-09-08T18:56:25.777Z,101728.62
2018-09-08T18:58:55.905Z,101732.16
2018-09-08T19:01:25.105Z,101737.41
2018-09-08T19:03:54.244Z,101735.19
2018-09-08T19:06:24.277Z,101731.62
2018-09-08T19:08:53.353Z,101730.77
2018-09-08T19:11:22.474Z,101735.14
2018-09-08T19:13:51.673Z,101736.27
2018-09-08T19:16:21.670Z,101748.63
2018-09-08T19:18:50.729Z,101752.23
2018-09-08T19:21:26.180Z,101745.67
2018-09-08T19:24:00.365Z,101755.61
2018-09-08T19:26:30.181Z,101743.00
2018-09-08T19:29:04.559Z,101726.28
2018-09-08T19:31:34.968Z,101716.67
2018-09-08T19:34:04.155Z,101717.55
2018-09-08T19:36:33.543Z,101721.38
2018-09-08T19:39:02.613Z,101710.70
2018-09-08T19:41:31.731Z,101717.64
2018-09-08T19:44:02.002Z,101725.09
2018-09-08T19:46:36.834Z,101725.66
2018-09-08T19:49:06.909Z,101719.38
2018-09-08T19:51:36.168Z,101717.48
2018-09-08T19:54:05.527Z,101714.20
2018-09-08T20:01:27.174Z,101722.20
2018-09-08T20:03:56.855Z,101721.66
2018-09-08T20:06:26.869Z,101724.16
2018-09-08T20:08:56.468Z,101716.17
2018-09-08T20:11:25.547Z,101716.71
2018-09-08T20:13:54.906Z,101720.58
2018-09-08T20:16:24.070Z,101714.26
2018-09-08T20:18:53.126Z,101721.13
2018-09-08T20:21:22.494Z,101721.97
2018-09-08T20:23:51.665Z,101712.95
2018-09-08T20:26:22.156Z,101722.27
2018-09-08T20:28:51.285Z,101725.61
2018-09-08T20:31:20.338Z,101734.97
2018-09-08T20:33:49.438Z,101741.00
2018-09-08T20:36:18.510Z,101745.11
2018-09-08T20:38:47.643Z,101748.36
2018-09-08T20:41:16.749Z,101737.71
2018-09-08T20:43:46.029Z,101742.87
2018-09-08T20:46:15.399Z,101738.50
2018-09-08T20:48:44.451Z,101728.90
2018-09-08T20:51:13.513Z,101727.03
2018-09-08T20:53:42.689Z,101711.67
2018-09-08T20:56:11.815Z,101685.11
2018-09-08T20:58:40.893Z,101688.14
2018-09-08T21:01:10.036Z,101709.83
2018-09-08T21:03:39.910Z,101707.36
2018-09-08T21:06:08.975Z,101703.55
2018-09-08T21:08:38.193Z,101696.41
2018-09-08T21:11:08.129Z,101699.44
2018-09-08T21:13:37.768Z,101703.31
2018-09-08T21:16:06.966Z,101701.69
2018-09-08T21:18:36.626Z,101697.58
2018-09-08T21:21:05.732Z,101704.14
2018-09-08T21:23:34.825Z,101706.06
2018-09-08T21:26:04.807Z,101707.67
2018-09-08T21:28:33.932Z,101709.86
2018-09-08T21:31:03.016Z,101701.59
2018-09-08T21:33:32.077Z,101702.13
2018-09-08T21:36:02.262Z,101704.86
2018-09-08T21:38:31.367Z,101706.23
2018-09-08T21:41:00.430Z,101704.57
2018-09-08T21:43:29.545Z,101698.24
2018-09-08T21:45:58.584Z,101695.25
2018-09-08T21:48:27.639Z,101695.84
2018-09-08T21:50:56.870Z,101709.77
2018-09-08T21:53:25.989Z,101711.42
2018-09-08T21:55:55.117Z,101712.50
2018-09-08T21:58:24.131Z,101710.84
2018-09-08T22:00:57.156Z,101710.01
2018-09-08T22:03:28.626Z,101708.38
2018-09-08T22:05:58.876Z,101711.14
2018-09-08T22:08:33.503Z,101710.34
2018-09-08T22:11:05.872Z,101701.03
2018-09-08T22:13:35.720Z,101708.44
2018-09-08T22:16:04.867Z,101701.28
2018-09-08T22:18:33.935Z,101702.66
2018-09-08T22:21:20.773Z,101707.06
2018-09-08T22:24:08.878Z,101699.68
2018-09-08T22:26:38.161Z,101699.68
2018-09-08T22:29:22.867Z,101697.23
2018-09-08T22:32:07.864Z,101698.89
2018-09-08T22:34:53.626Z,101696.98
2018-09-08T22:37:24.723Z,101700.81
2018-09-08T22:39:53.919Z,101702.77
2018-09-08T22:42:23.047Z,101698.11
2018-09-08T22:45:07.177Z,101694.83
2018-09-08T22:47:45.889Z,101694.00
2018-09-08T22:50:28.606Z,101694.83
2018-09-08T22:52:58.119Z,101699.49
2018-09-08T22:55:43.499Z,101700.32
2018-09-08T22:58:30.018Z,101698.66
2018-09-08T23:00:59.204Z,101688.80
2018-09-08T23:03:44.311Z,101689.89
2018-09-08T23:06:29.114Z,101692.94
2018-09-08T23:09:12.962Z,101690.48
2018-09-08T23:11:42.122Z,101694.89
2018-09-08T23:14:28.674Z,101698.76
2018-09-08T23:16:57.978Z,101705.87
2018-09-08T23:19:27.051Z,101694.34
2018-09-08T23:21:56.997Z,101687.73
2018-09-08T23:24:26.112Z,101684.46
2018-09-08T23:26:55.159Z,101682.55
2018-09-08T23:29:24.251Z,101686.67
2018-09-08T23:31:53.241Z,101690.79
2018-09-08T23:34:22.262Z,101682.55
2018-09-08T23:36:51.324Z,101675.44
2018-09-08T23:39:20.544Z,101673.82
2018-09-08T23:41:49.677Z,101669.71
2018-09-08T23:44:18.899Z,101672.70
2018-09-08T23:46:49.095Z,101672.70
2018-09-08T23:49:18.678Z,101671.86
2018-09-08T23:51:47.963Z,101668.82
2018-09-08T23:54:17.077Z,101670.98
2018-09-08T23:56:46.219Z,101670.19
2018-09-08T23:59:15.270Z,101671.86
